sensor_id;sensor_type;location;lat;lon;timestamp;pressure;altitude;pressure_sealevel;temperature;humidity
5988;BME280;3021;51.000;6.980;2024-03-22T00:00:28;67592.88;;;11.59;100.00
5988;BME280;3021;51.000;6.980;2024-03-22T00:02:53;67580.72;;;11.49;100.00
5988;BME280;3021;51.000;6.980;2024-03-22T00:05:19;67583.63;;;11.51;100.00
5988;BME280;3021;51.000;6.980;2024-03-22T00:07:46;67563.97;;;11.34;100.00
5988;BME280;3021;51.000;6.980;2024-03-22T00:10:12;67559.91;;;11.30;100.00
5988;BME280;3021;51.000;6.980;2024-03-22T00:12:38;67551.38;;;11.25;100.00
5988;BME280;3021;51.000;6.980;2024-03-22T00:15:04;67558.78;;;11.29;100.00
5988;BME280;3021;51.000;6.980;2024-03-22T00:17:29;67554.13;;;11.25;100.00
5988;BME280;3021;51.000;6.980;2024-03-22T00:19:56;67557.59;;;11.28;100.00
5988;BME280;3021;51.000;6.980;2024-03-22T00:22:21;67552.97;;;11.24;100.00
5988;BME280;3021;51.000;6.980;2024-03-22T00:24:46;67561.22;;;11.34;100.00
5988;BME280;3021;51.000;6.980;2024-03-22T00:27:12;67569.16;;;11.38;100.00
5988;BME280;3021;51.000;6.980;2024-03-22T00:29:37;67578.28;;;11.44;100.00
5988;BME280;3021;51.000;6.980;2024-03-22T00:32:03;67567.44;;;11.37;100.00
5988;BME280;3021;51.000;6.980;2024-03-22T00:34:29;67565.13;;;11.35;100.00
5988;BME280;3021;51.000;6.980;2024-03-22T00:36:54;67537.34;;;11.10;100.00
5988;BME280;3021;51.000;6.980;2024-03-22T00:39:20;67533.91;;;11.07;100.00
5988;BME280;3021;51.000;6.980;2024-03-22T00:41:45;67557.16;;;11.30;100.00
5988;BME280;3021;51.000;6.980;2024-03-22T00:44:10;67560.50;;;11.31;100.00
5988;BME280;3021;51.000;6.980;2024-03-22T00:46:35;67557.03;;;11.28;100.00
5988;BME280;3021;51.000;6.980;2024-03-22T00:49:02;67565.69;;;11.35;100.00
5988;BME280;3021;51.000;6.980;2024-03-22T00:51:27;67560.50;;;11.31;100.00
5988;BME280;3021;51.000;6.980;2024-03-22T00:53:53;67563.97;;;11.34;100.00
5988;BME280;3021;51.000;6.980;2024-03-22T00:56:18;67575.53;;;11.44;100.00
5988;BME280;3021;51.000;6.980;2024-03-22T00:58:43;67578.56;;;11.49;100.00
5988;BME280;3021;51.000;6.980;2024-03-22T01:01:09;67577.56;;;11.41;100.00
5988;BME280;3021;51.000;6.980;2024-03-22T01:03:34;67575.53;;;11.44;100.00
5988;BME280;3021;51.000;6.980;2024-03-22T01:05:59;67570.31;;;11.39;100.00
5988;BME280;3021;51.000;6.980;2024-03-22T01:08:25;67575.53;;;11.44;100.00
5988;BME280;3021;51.000;6.980;2024-03-22T01:10:50;67571.50;;;11.40;100.00
5988;BME280;3021;51.000;6.980;2024-03-22T01:13:16;67560.50;;;11.31;100.00
5988;BME280;3021;51.000;6.980;2024-03-22T01:15:41;67564.69;;;11.37;100.00
5988;BME280;3021;51.000;6.980;2024-03-22T01:18:07;67577.25;;;11.46;100.00
5988;BME280;3021;51.000;6.980;2024-03-22T01:20:32;67575.53;;;11.44;100.00
5988;BME280;3021;51.000;6.980;2024-03-22T01:22:59;67578.41;;;11.47;100.00
5988;BME280;3021;51.000;6.980;2024-03-22T01:25:27;67568.03;;;11.37;100.00
5988;BME280;3021;51.000;6.980;2024-03-22T01:27:53;67574.38;;;11.43;100.00
5988;BME280;3021;51.000;6.980;2024-03-22T01:30:18;67588.81;;;11.56;100.00
5988;BME280;3021;51.000;6.980;2024-03-22T01:32:43;67585.22;;;11.50;100.00
5988;BME280;3021;51.000;6.980;2024-03-22T01:35:09;67583.63;;;11.51;100.00
5988;BME280;3021;51.000;6.980;2024-03-22T01:37:34;67575.53;;;11.44;100.00
5988;BME280;3021;51.000;6.980;2024-03-22T01:39:59;67573.06;;;11.39;100.00
5988;BME280;3021;51.000;6.980;2024-03-22T01:42:25;67566.88;;;11.36;100.00
5988;BME280;3021;51.000;6.980;2024-03-22T01:44:50;67566.88;;;11.36;100.00
5988;BME280;3021;51.000;6.980;2024-03-22T01:47:16;67576.69;;;11.45;100.00
5988;BME280;3021;51.000;6.980;2024-03-22T01:49:42;67584.94;;;11.55;100.00
5988;BME280;3021;51.000;6.980;2024-03-22T01:52:08;67578.56;;;11.49;100.00
5988;BME280;3021;51.000;6.980;2024-03-22T01:54:33;67581.88;;;11.50;100.00
5988;BME280;3021;51.000;6.980;2024-03-22T01:56:58;67574.81;;;11.41;100.00
5988;BME280;3021;51.000;6.980;2024-03-22T01:59:25;67561.66;;;11.32;100.00
5988;BME280;3021;51.000;6.980;2024-03-22T02:01:50;67550.22;;;11.24;100.00
5988;BME280;3021;51.000;6.980;2024-03-22T02:04:16;67567.44;;;11.37;100.00
5988;BME280;3021;51.000;6.980;2024-03-22T02:06:41;67567.28;;;11.34;100.00
5988;BME280;3021;51.000;6.980;2024-03-22T02:09:06;67571.50;;;11.40;100.00
5988;BME280;3021;51.000;6.980;2024-03-22T02:11:36;67551.25;;;11.22;100.00
5988;BME280;3021;51.000;6.980;2024-03-22T02:14:02;67554.72;;;11.26;100.00
5988;BME280;3021;51.000;6.980;2024-03-22T02:16:28;67570.31;;;11.39;100.00
5988;BME280;3021;51.000;6.980;2024-03-22T02:18:53;67558.31;;;11.31;100.00
5988;BME280;3021;51.000;6.980;2024-03-22T02:21:19;67570.31;;;11.39;100.00
5988;BME280;3021;51.000;6.980;2024-03-22T02:23:44;67583.63;;;11.51;100.00
5988;BME280;3021;51.000;6.980;2024-03-22T02:26:09;67580.72;;;11.49;100.00
5988;BME280;3021;51.000;6.980;2024-03-22T02:28:35;67571.34;;;11.38;100.00
5988;BME280;3021;51.000;6.980;2024-03-22T02:31:01;67562.38;;;11.35;100.00
5988;BME280;3021;51.000;6.980;2024-03-22T02:33:27;67556.59;;;11.30;100.00
5988;BME280;3021;51.000;6.980;2024-03-22T02:35:52;67548.19;;;11.17;100.00
5988;BME280;3021;51.000;6.980;2024-03-22T02:38:18;67548.34;;;11.20;100.00
5988;BME280;3021;51.000;6.980;2024-03-22T02:40:44;67535.78;;;11.11;100.00
5988;BME280;3021;51.000;6.980;2024-03-22T02:43:11;67565.13;;;11.35;100.00
5988;BME280;3021;51.000;6.980;2024-03-22T02:45:36;67550.09;;;11.21;100.00
5988;BME280;3021;51.000;6.980;2024-03-22T02:48:01;67584.78;;;11.52;100.00
5988;BME280;3021;51.000;6.980;2024-03-22T02:50:27;67567.88;;;11.35;100.00
5988;BME280;3021;51.000;6.980;2024-03-22T02:52:52;67558.78;;;11.29;100.00
5988;BME280;3021;51.000;6.980;2024-03-22T02:55:17;67564.41;;;11.32;100.00
5988;BME280;3021;51.000;6.980;2024-03-22T02:57:43;67568.16;;;11.40;100.00
5988;BME280;3021;51.000;6.980;2024-03-22T03:00:09;67562.38;;;11.35;100.00
5988;BME280;3021;51.000;6.980;2024-03-22T03:02:34;67588.81;;;11.56;100.00
5988;BME280;3021;51.000;6.980;2024-03-22T03:05:00;67579.59;;;11.48;100.00
5988;BME280;3021;51.000;6.980;2024-03-22T03:07:25;67591.56;;;11.56;100.00
5988;BME280;3021;51.000;6.980;2024-03-22T03:09:51;67573.22;;;11.42;100.00
5988;BME280;3021;51.000;6.980;2024-03-22T03:12:16;67574.97;;;11.44;100.00
5988;BME280;3021;51.000;6.980;2024-03-22T03:14:41;67584.63;;;11.50;100.00
5988;BME280;3021;51.000;6.980;2024-03-22T03:17:07;67566.88;;;11.36;100.00
5988;BME280;3021;51.000;6.980;2024-03-22T03:19:33;67555.31;;;11.26;100.00
5988;BME280;3021;51.000;6.980;2024-03-22T03:21:58;67555.16;;;11.23;100.00
5988;BME280;3021;51.000;6.980;2024-03-22T03:24:23;67528.13;;;11.02;100.00
5988;BME280;3021;51.000;6.980;2024-03-22T03:26:48;67513.81;;;10.92;100.00
5988;BME280;3021;51.000;6.980;2024-03-22T03:29:15;67512.50;;;10.88;100.00
5988;BME280;3021;51.000;6.980;2024-03-22T03:31:40;67497.91;;;10.72;100.00
5988;BME280;3021;51.000;6.980;2024-03-22T03:34:05;67488.97;;;10.69;100.00
5988;BME280;3021;51.000;6.980;2024-03-22T03:36:31;67494.00;;;10.71;100.00
5988;BME280;3021;51.000;6.980;2024-03-22T03:38:56;67491.13;;;10.69;100.00
5988;BME280;3021;51.000;6.980;2024-03-22T03:41:21;67510.06;;;10.83;100.00
5988;BME280;3021;51.000;6.980;2024-03-22T03:43:47;67514.25;;;10.89;100.00
5988;BME280;3021;51.000;6.980;2024-03-22T03:46:12;67511.34;;;10.87;100.00
5988;BME280;3021;51.000;6.980;2024-03-22T03:48:37;67527.97;;;10.99;100.00
5988;BME280;3021;51.000;6.980;2024-03-22T03:51:03;67515.97;;;10.91;100.00
5988;BME280;3021;51.000;6.980;2024-03-22T03:53:29;67515.41;;;10.91;100.00
5988;BME280;3021;51.000;6.980;2024-03-22T03:55:55;67515.97;;;10.91;100.00
5988;BME280;3021;51.000;6.980;2024-03-22T03:58:20;67526.97;;;11.01;100.00
5988;BME280;3021;51.000;6.980;2024-03-22T04:00:46;67516.69;;;10.94;100.00
5988;BME280;3021;51.000;6.980;2024-03-22T04:03:11;67532.75;;;11.06;100.00
5988;BME280;3021;51.000;6.980;2024-03-22T04:05:36;67526.97;;;11.01;100.00
5988;BME280;3021;51.000;6.980;2024-03-22T04:08:02;67542.44;;;11.12;100.00
5988;BME280;3021;51.000;6.980;2024-03-22T04:10:27;67528.69;;;11.02;100.00
5988;BME280;3021;51.000;6.980;2024-03-22T04:12:52;67528.13;;;11.02;100.00
5988;BME280;3021;51.000;6.980;2024-03-22T04:15:18;67551.81;;;11.23;100.00
5988;BME280;3021;51.000;6.980;2024-03-22T04:17:43;67538.38;;;11.09;100.00
5988;BME280;3021;51.000;6.980;2024-03-22T04:20:09;67508.47;;;10.84;100.00
5988;BME280;3021;51.000;6.980;2024-03-22T04:22:36;67526.41;;;11.00;100.00
5988;BME280;3021;51.000;6.980;2024-03-22T04:25:01;67514.25;;;10.89;100.00
5988;BME280;3021;51.000;6.980;2024-03-22T04:27:27;67524.06;;;10.98;100.00
5988;BME280;3021;51.000;6.980;2024-03-22T04:29:52;67514.69;;;10.87;100.00
5988;BME280;3021;51.000;6.980;2024-03-22T04:32:18;67525.09;;;10.97;100.00
5988;BME280;3021;51.000;6.980;2024-03-22T04:34:43;67506.72;;;10.83;100.00
5988;BME280;3021;51.000;6.980;2024-03-22T04:37:08;67498.63;;;10.76;100.00
5988;BME280;3021;51.000;6.980;2024-03-22T04:39:34;67510.78;;;10.86;100.00
5988;BME280;3021;51.000;6.980;2024-03-22T04:42:00;67501.53;;;10.78;100.00
5988;BME280;3021;51.000;6.980;2024-03-22T04:44:25;67479.56;;;10.59;100.00
5988;BME280;3021;51.000;6.980;2024-03-22T04:46:51;67491.13;;;10.69;100.00
5988;BME280;3021;51.000;6.980;2024-03-22T04:49:16;67485.19;;;10.61;100.00
5988;BME280;3021;51.000;6.980;2024-03-22T04:51:42;67462.25;;;10.43;100.00
5988;BME280;3021;51.000;6.980;2024-03-22T04:54:07;67495.16;;;10.72;100.00
5988;BME280;3021;51.000;6.980;2024-03-22T04:56:32;67498.06;;;10.75;100.00
5988;BME280;3021;51.000;6.980;2024-03-22T04:58:58;67500.97;;;10.78;100.00
5988;BME280;3021;51.000;6.980;2024-03-22T05:01:23;67504.41;;;10.81;100.00
5988;BME280;3021;51.000;6.980;2024-03-22T05:03:49;67514.69;;;10.87;100.00
5988;BME280;3021;51.000;6.980;2024-03-22T05:06:15;67539.69;;;11.12;100.00
5988;BME280;3021;51.000;6.980;2024-03-22T05:08:40;67533.75;;;11.04;100.00
5988;BME280;3021;51.000;6.980;2024-03-22T05:11:06;67541.41;;;11.14;100.00
5988;BME280;3021;51.000;6.980;2024-03-22T05:13:32;67542.00;;;11.14;100.00
5988;BME280;3021;51.000;6.980;2024-03-22T05:15:58;67535.78;;;11.11;100.00
5988;BME280;3021;51.000;6.980;2024-03-22T05:18:23;67539.69;;;11.12;100.00
5988;BME280;3021;51.000;6.980;2024-03-22T05:20:48;67546.63;;;11.18;100.00
5988;BME280;3021;51.000;6.980;2024-03-22T05:23:13;67548.78;;;11.18;100.00
5988;BME280;3021;51.000;6.980;2024-03-22T05:25:43;67536.78;;;11.10;100.00
5988;BME280;3021;51.000;6.980;2024-03-22T05:28:09;67554.72;;;11.26;100.00
5988;BME280;3021;51.000;6.980;2024-03-22T05:30:34;67539.09;;;11.12;100.00
5988;BME280;3021;51.000;6.980;2024-03-22T05:32:59;67555.56;;;11.31;100.00
5988;BME280;3021;51.000;6.980;2024-03-22T05:35:27;67562.81;;;11.33;100.00
5988;BME280;3021;51.000;6.980;2024-03-22T05:37:52;67557.03;;;11.28;100.00
5988;BME280;3021;51.000;6.980;2024-03-22T05:40:17;67573.94;;;11.45;100.00
5988;BME280;3021;51.000;6.980;2024-03-22T05:42:43;67557.03;;;11.28;100.00
5988;BME280;3021;51.000;6.980;2024-03-22T05:45:09;67582.91;;;11.48;100.00
5988;BME280;3021;51.000;6.980;2024-03-22T05:47:34;67584.94;;;11.55;100.00
5988;BME280;3021;51.000;6.980;2024-03-22T05:50:00;67605.03;;;11.70;100.00
5988;BME280;3021;51.000;6.980;2024-03-22T05:52:26;67587.25;;;11.57;100.00
5988;BME280;3021;51.000;6.980;2024-03-22T05:54:51;67592.16;;;11.56;100.00
5988;BME280;3021;51.000;6.980;2024-03-22T05:57:17;67596.34;;;11.63;100.00
5988;BME280;3021;51.000;6.980;2024-03-22T05:59:42;67587.69;;;11.55;100.00
5988;BME280;3021;51.000;6.980;2024-03-22T06:02:07;67611.41;;;11.76;100.00
5988;BME280;3021;51.000;6.980;2024-03-22T06:04:33;67578.88;;;11.45;100.00
5988;BME280;3021;51.000;6.980;2024-03-22T06:06:59;67617.75;;;11.82;100.00
5988;BME280;3021;51.000;6.980;2024-03-22T06:09:28;67634.56;;;11.97;100.00
5988;BME280;3021;51.000;6.980;2024-03-22T06:12:04;67644.94;;;12.06;100.00
5988;BME280;3021;51.000;6.980;2024-03-22T06:14:30;67670.00;;;12.31;100.00
5988;BME280;3021;51.000;6.980;2024-03-22T06:16:56;67683.16;;;12.40;100.00
5988;BME280;3021;51.000;6.980;2024-03-22T06:19:21;67678.53;;;12.36;100.00
5988;BME280;3021;51.000;6.980;2024-03-22T06:21:46;67696.03;;;12.54;100.00
5988;BME280;3021;51.000;6.980;2024-03-22T06:24:11;67699.34;;;12.54;100.00
5988;BME280;3021;51.000;6.980;2024-03-22T06:26:37;67695.47;;;12.53;100.00
5988;BME280;3021;51.000;6.980;2024-03-22T06:29:02;67691.41;;;12.50;100.00
5988;BME280;3021;51.000;6.980;2024-03-22T06:31:28;67680.13;;;12.35;100.00
5988;BME280;3021;51.000;6.980;2024-03-22T06:33:54;67666.94;;;12.25;100.00
5988;BME280;3021;51.000;6.980;2024-03-22T06:36:19;67687.63;;;12.41;100.00
5988;BME280;3021;51.000;6.980;2024-03-22T06:38:44;67684.75;;;12.39;100.00
5988;BME280;3021;51.000;6.980;2024-03-22T06:41:10;67647.84;;;12.08;100.00
5988;BME280;3021;51.000;6.980;2024-03-22T06:43:35;67644.38;;;12.05;100.00
5988;BME280;3021;51.000;6.980;2024-03-22T06:46:00;67675.50;;;12.31;100.00
5988;BME280;3021;51.000;6.980;2024-03-22T06:48:26;67694.28;;;12.52;100.00
5988;BME280;3021;51.000;6.980;2024-03-22T06:50:51;67739.00;;;12.94;100.00
5988;BME280;3021;51.000;6.980;2024-03-22T06:53:16;67766.38;;;13.11;100.00
5988;BME280;3021;51.000;6.980;2024-03-22T06:55:42;67770.00;;;13.17;100.00
5988;BME280;3021;51.000;6.980;2024-03-22T06:58:07;67782.31;;;13.30;100.00
5988;BME280;3021;51.000;6.980;2024-03-22T07:00:32;67800.13;;;13.44;100.00
5988;BME280;3021;51.000;6.980;2024-03-22T07:03:01;67834.31;;;13.74;100.00
5988;BME280;3021;51.000;6.980;2024-03-22T07:05:28;67883.72;;;14.21;100.00
5988;BME280;3021;51.000;6.980;2024-03-22T07:07:53;67924.72;;;14.55;100.00
5988;BME280;3021;51.000;6.980;2024-03-22T07:10:21;67931.25;;;14.63;100.00
5988;BME280;3021;51.000;6.980;2024-03-22T07:12:47;67925.88;;;14.56;100.00
5988;BME280;3021;51.000;6.980;2024-03-22T07:15:13;67928.22;;;14.58;100.00
5988;BME280;3021;51.000;6.980;2024-03-22T07:17:38;67932.44;;;14.64;100.00
5988;BME280;3021;51.000;6.980;2024-03-22T07:20:04;67943.31;;;14.71;100.00
5988;BME280;3021;51.000;6.980;2024-03-22T07:22:29;67970.09;;;14.97;100.00
5988;BME280;3021;51.000;6.980;2024-03-22T07:24:55;67986.34;;;15.12;100.00
5988;BME280;3021;51.000;6.980;2024-03-22T07:27:20;68039.59;;;15.57;100.00
5988;BME280;3021;51.000;6.980;2024-03-22T07:29:46;68056.56;;;15.74;100.00
5988;BME280;3021;51.000;6.980;2024-03-22T07:32:11;68070.06;;;15.88;100.00
5988;BME280;3021;51.000;6.980;2024-03-22T07:34:36;68094.88;;;16.08;100.00
5988;BME280;3021;51.000;6.980;2024-03-22T07:37:02;68104.19;;;16.16;100.00
5988;BME280;3021;51.000;6.980;2024-03-22T07:39:29;68085.16;;;16.02;100.00
5988;BME280;3021;51.000;6.980;2024-03-22T07:41:54;68097.78;;;16.11;100.00
5988;BME280;3021;51.000;6.980;2024-03-22T07:44:20;68117.38;;;16.26;100.00
5988;BME280;3021;51.000;6.980;2024-03-22T07:46:45;68172.53;;;16.74;100.00
5988;BME280;3021;51.000;6.980;2024-03-22T07:49:14;68278.88;;;17.69;100.00
5988;BME280;3021;51.000;6.980;2024-03-22T07:51:39;68315.69;;;18.04;100.00
5988;BME280;3021;51.000;6.980;2024-03-22T07:54:05;68334.28;;;18.20;100.00
5988;BME280;3021;51.000;6.980;2024-03-22T07:56:30;68387.66;;;18.65;100.00
5988;BME280;3021;51.000;6.980;2024-03-22T07:58:56;68390.69;;;18.70;100.00
5988;BME280;3021;51.000;6.980;2024-03-22T08:01:22;68372.22;;;18.56;100.00
5988;BME280;3021;51.000;6.980;2024-03-22T08:03:47;68366.25;;;18.48;100.00
5988;BME280;3021;51.000;6.980;2024-03-22T08:06:12;68367.41;;;18.50;100.00
5988;BME280;3021;51.000;6.980;2024-03-22T08:08:38;68316.38;;;18.07;100.00
5988;BME280;3021;51.000;6.980;2024-03-22T08:11:03;68306.38;;;17.95;100.00
5988;BME280;3021;51.000;6.980;2024-03-22T08:13:29;68295.75;;;17.84;100.00
5988;BME280;3021;51.000;6.980;2024-03-22T08:15:54;68275.09;;;17.70;100.00
5988;BME280;3021;51.000;6.980;2024-03-22T08:18:20;68313.22;;;17.99;100.00
5988;BME280;3021;51.000;6.980;2024-03-22T08:20:45;68356.38;;;18.40;100.00
5988;BME280;3021;51.000;6.980;2024-03-22T08:23:10;68454.84;;;19.29;100.00
5988;BME280;3021;51.000;6.980;2024-03-22T08:25:36;68624.19;;;20.77;100.00
5988;BME280;3021;51.000;6.980;2024-03-22T08:28:02;68858.69;;;22.86;100.00
5988;BME280;3021;51.000;6.980;2024-03-22T08:30:27;68853.31;;;22.79;100.00
5988;BME280;3021;51.000;6.980;2024-03-22T08:32:53;68737.97;;;21.80;100.00
5988;BME280;3021;51.000;6.980;2024-03-22T08:35:18;68713.94;;;21.56;100.00
5988;BME280;3021;51.000;6.980;2024-03-22T08:37:43;68680.09;;;21.26;100.00
5988;BME280;3021;51.000;6.980;2024-03-22T08:40:09;68613.25;;;20.69;100.00
5988;BME280;3021;51.000;6.980;2024-03-22T08:42:35;68401.72;;;18.80;100.00
5988;BME280;3021;51.000;6.980;2024-03-22T08:45:01;68333.13;;;18.19;100.00
5988;BME280;3021;51.000;6.980;2024-03-22T08:47:26;68285.56;;;17.79;100.00
5988;BME280;3021;51.000;6.980;2024-03-22T08:49:51;68267.53;;;17.64;100.00
5988;BME280;3021;51.000;6.980;2024-03-22T08:52:17;68342.53;;;18.30;100.00
5988;BME280;3021;51.000;6.980;2024-03-22T08:54:42;68261.00;;;17.55;100.00
5988;BME280;3021;51.000;6.980;2024-03-22T08:57:08;68248.81;;;17.44;100.00
5988;BME280;3021;51.000;6.980;2024-03-22T08:59:33;68223.25;;;17.22;100.00
5988;BME280;3021;51.000;6.980;2024-03-22T09:01:58;68155.25;;;16.62;100.00
5988;BME280;3021;51.000;6.980;2024-03-22T09:04:26;68163.28;;;16.66;100.00
5988;BME280;3021;51.000;6.980;2024-03-22T09:06:52;68206.97;;;17.07;100.00
5988;BME280;3021;51.000;6.980;2024-03-22T09:09:17;68243.00;;;17.39;100.00
5988;BME280;3021;51.000;6.980;2024-03-22T09:11:43;68290.06;;;17.81;100.00
5988;BME280;3021;51.000;6.980;2024-03-22T09:14:08;68340.09;;;18.25;100.00
5988;BME280;3021;51.000;6.980;2024-03-22T09:16:33;68413.28;;;18.88;100.00
5988;BME280;3021;51.000;6.980;2024-03-22T09:18:59;68505.47;;;19.74;100.00
5988;BME280;3021;51.000;6.980;2024-03-22T09:21:25;68736.22;;;21.78;100.00
5988;BME280;3021;51.000;6.980;2024-03-22T09:23:50;68859.28;;;22.87;100.00
5988;BME280;3021;51.000;6.980;2024-03-22T09:26:15;68634.22;;;20.88;100.00
5988;BME280;3021;51.000;6.980;2024-03-22T09:28:40;68462.13;;;19.31;100.00
5988;BME280;3021;51.000;6.980;2024-03-22T09:31:07;68528.78;;;19.95;100.00
5988;BME280;3021;51.000;6.980;2024-03-22T09:33:36;68509.28;;;19.73;100.00
5988;BME280;3021;51.000;6.980;2024-03-22T09:36:02;68461.69;;;19.33;100.00
5988;BME280;3021;51.000;6.980;2024-03-22T09:38:28;68585.97;;;20.48;100.00
5988;BME280;3021;51.000;6.980;2024-03-22T09:40:53;68536.34;;;20.01;100.00
5988;BME280;3021;51.000;6.980;2024-03-22T09:43:20;68469.97;;;19.43;100.00
5988;BME280;3021;51.000;6.980;2024-03-22T09:45:47;68414.56;;;18.91;100.00
5988;BME280;3021;51.000;6.980;2024-03-22T09:48:13;68586.41;;;20.46;100.00
5988;BME280;3021;51.000;6.980;2024-03-22T09:50:39;68398.72;;;18.75;100.00
5988;BME280;3021;51.000;6.980;2024-03-22T09:53:06;68520.38;;;19.82;100.00
5988;BME280;3021;51.000;6.980;2024-03-22T09:55:33;68688.25;;;21.33;100.00
5988;BME280;3021;51.000;6.980;2024-03-22T09:58:00;68616.16;;;20.72;100.00
5988;BME280;3021;51.000;6.980;2024-03-22T10:00:27;68655.31;;;21.09;100.00
5988;BME280;3021;51.000;6.980;2024-03-22T10:02:53;68496.75;;;19.66;100.00
5988;BME280;3021;51.000;6.980;2024-03-22T10:05:19;68506.03;;;19.75;100.00
5988;BME280;3021;51.000;6.980;2024-03-22T10:07:45;68517.59;;;19.82;100.00
5988;BME280;3021;51.000;6.980;2024-03-22T10:10:10;68632.34;;;20.84;100.00
5988;BME280;3021;51.000;6.980;2024-03-22T10:12:36;68756.03;;;21.96;100.00
5988;BME280;3021;51.000;6.980;2024-03-22T10:15:02;68546.00;;;20.05;100.00
5988;BME280;3021;51.000;6.980;2024-03-22T10:17:28;68551.50;;;20.15;100.00
5988;BME280;3021;51.000;6.980;2024-03-22T10:19:54;68567.06;;;20.26;100.00
5988;BME280;3021;51.000;6.980;2024-03-22T10:22:20;68517.59;;;19.82;100.00
5988;BME280;3021;51.000;6.980;2024-03-22T10:24:45;68450.63;;;19.23;100.00
5988;BME280;3021;51.000;6.980;2024-03-22T10:27:11;68468.06;;;19.39;100.00
5988;BME280;3021;51.000;6.980;2024-03-22T10:29:37;68412.94;;;18.92;100.00
5988;BME280;3021;51.000;6.980;2024-03-22T10:32:02;68467.50;;;19.38;100.00
5988;BME280;3021;51.000;6.980;2024-03-22T10:34:28;68313.34;;;18.02;100.00
5988;BME280;3021;51.000;6.980;2024-03-22T10:37:01;68345.91;;;18.30;100.00
5988;BME280;3021;51.000;6.980;2024-03-22T10:39:28;68271.91;;;17.62;100.00
5988;BME280;3021;51.000;6.980;2024-03-22T10:41:53;68285.28;;;17.74;100.00
5988;BME280;3021;51.000;6.980;2024-03-22T10:44:19;68225.44;;;17.21;100.00
5988;BME280;3021;51.000;6.980;2024-03-22T10:46:47;68210.47;;;17.10;100.00
5988;BME280;3021;51.000;6.980;2024-03-22T10:49:16;68245.19;;;17.39;100.00
5988;BME280;3021;51.000;6.980;2024-03-22T10:51:44;68233.56;;;17.28;100.00
5988;BME280;3021;51.000;6.980;2024-03-22T10:54:13;68361.16;;;18.46;100.00
5988;BME280;3021;51.000;6.980;2024-03-22T10:56:40;68405.09;;;18.80;100.00
5988;BME280;3021;51.000;6.980;2024-03-22T10:59:06;68350.69;;;18.37;100.00
5988;BME280;3021;51.000;6.980;2024-03-22T11:01:32;68334.16;;;18.18;100.00
5988;BME280;3021;51.000;6.980;2024-03-22T11:04:05;68406.97;;;18.85;100.00
5988;BME280;3021;51.000;6.980;2024-03-22T11:06:31;68381.25;;;18.59;100.00
5988;BME280;3021;51.000;6.980;2024-03-22T11:08:59;68379.63;;;18.60;100.00
5988;BME280;3021;51.000;6.980;2024-03-22T11:11:28;68397.69;;;18.76;100.00
5988;BME280;3021;51.000;6.980;2024-03-22T11:13:53;68303.59;;;17.95;100.00
5988;BME280;3021;51.000;6.980;2024-03-22T11:16:21;68338.34;;;18.24;100.00
5988;BME280;3021;51.000;6.980;2024-03-22T11:18:46;68331.81;;;18.16;100.00
5988;BME280;3021;51.000;6.980;2024-03-22T11:21:12;68311.59;;;18.00;100.00
5988;BME280;3021;51.000;6.980;2024-03-22T11:23:38;68352.31;;;18.36;100.00
5988;BME280;3021;51.000;6.980;2024-03-22T11:26:03;68362.19;;;18.45;100.00
5988;BME280;3021;51.000;6.980;2024-03-22T11:28:30;68311.03;;;18.00;100.00
5988;BME280;3021;51.000;6.980;2024-03-22T11:30:56;68330.78;;;18.17;100.00
5988;BME280;3021;51.000;6.980;2024-03-22T11:33:21;68293.13;;;17.86;100.00
5988;BME280;3021;51.000;6.980;2024-03-22T11:35:47;68332.66;;;18.21;100.00
5988;BME280;3021;51.000;6.980;2024-03-22T11:38:13;68204.09;;;17.05;100.00
5988;BME280;3021;51.000;6.980;2024-03-22T11:40:39;68247.66;;;17.43;100.00
5988;BME280;3021;51.000;6.980;2024-03-22T11:43:05;68234.41;;;17.34;100.00
5988;BME280;3021;51.000;6.980;2024-03-22T11:45:31;68259.28;;;17.54;100.00
5988;BME280;3021;51.000;6.980;2024-03-22T11:48:01;68232.09;;;17.32;100.00
5988;BME280;3021;51.000;6.980;2024-03-22T11:50:27;68300.41;;;17.88;100.00
5988;BME280;3021;51.000;6.980;2024-03-22T11:52:53;68304.75;;;17.96;100.00
5988;BME280;3021;51.000;6.980;2024-03-22T11:55:18;68355.91;;;18.42;100.00
5988;BME280;3021;51.000;6.980;2024-03-22T11:57:49;68329.03;;;18.16;100.00
5988;BME280;3021;51.000;6.980;2024-03-22T12:00:17;68201.59;;;17.00;100.00
5988;BME280;3021;51.000;6.980;2024-03-22T12:02:44;68250.44;;;17.43;100.00
5988;BME280;3021;51.000;6.980;2024-03-22T12:05:10;68262.19;;;17.56;100.00
5988;BME280;3021;51.000;6.980;2024-03-22T12:07:36;68247.78;;;17.46;100.00
5988;BME280;3021;51.000;6.980;2024-03-22T12:10:01;68220.78;;;17.17;100.00
5988;BME280;3021;51.000;6.980;2024-03-22T12:12:27;68173.41;;;16.80;100.00
5988;BME280;3021;51.000;6.980;2024-03-22T12:14:53;68171.84;;;16.71;100.00
5988;BME280;3021;51.000;6.980;2024-03-22T12:17:18;68223.81;;;17.22;100.00
5988;BME280;3021;51.000;6.980;2024-03-22T12:19:44;68203.47;;;17.04;100.00
5988;BME280;3021;51.000;6.980;2024-03-22T12:22:09;68178.50;;;16.82;100.00
5988;BME280;3021;51.000;6.980;2024-03-22T12:24:36;68193.94;;;16.91;100.00
5988;BME280;3021;51.000;6.980;2024-03-22T12:27:01;68174.00;;;16.81;100.00
5988;BME280;3021;51.000;6.980;2024-03-22T12:29:27;68221.50;;;17.20;100.00
5988;BME280;3021;51.000;6.980;2024-03-22T12:31:52;68219.19;;;17.18;100.00
5988;BME280;3021;51.000;6.980;2024-03-22T12:34:17;68176.63;;;16.78;100.00
5988;BME280;3021;51.000;6.980;2024-03-22T12:36:43;68222.53;;;17.19;100.00
5988;BME280;3021;51.000;6.980;2024-03-22T12:39:08;68197.69;;;16.99;100.00
5988;BME280;3021;51.000;6.980;2024-03-22T12:41:34;68206.41;;;17.07;100.00
5988;BME280;3021;51.000;6.980;2024-03-22T12:44:00;68166.75;;;16.69;100.00
5988;BME280;3021;51.000;6.980;2024-03-22T12:46:26;68155.84;;;16.62;100.00
5988;BME280;3021;51.000;6.980;2024-03-22T12:48:52;68108.22;;;16.20;100.00
5988;BME280;3021;51.000;6.980;2024-03-22T12:51:18;68147.13;;;16.54;100.00
5988;BME280;3021;51.000;6.980;2024-03-22T12:53:43;68115.19;;;16.26;100.00
5988;BME280;3021;51.000;6.980;2024-03-22T12:56:09;68214.97;;;17.12;100.00
5988;BME280;3021;51.000;6.980;2024-03-22T12:58:36;68222.09;;;17.21;100.00
5988;BME280;3021;51.000;6.980;2024-03-22T13:01:01;68184.19;;;16.85;100.00